Dades meteomassalio
Diari Summary for Agost 8, 2017 Units:  Metric    English   Both
« Previous Day
Next Day »
Diari Semanal Mensual Anual Personalitzat
  Maxima: Minima: Mijana:
Temperatura: -17.8 °C -7.1 °C -4.3 °C
Rosada: -17.8 °C -14.3 °C -11.1 °C
Humitat: Humidity % 28 % 49 %
Velocitat del vent: 0 km/h 0 km/h 41.2 km/h
Racha vent: 0 km/h - -
Vent:- - WNW
Pressio: 0 hPa 34073.3 hPa -
Pluja: 0 mm    
Historical Graphs
 
 
Tabular Data for Agost 8, 2017
Time Temperature Dew Point Pressure Wind Wind Speed Wind Gust Humidity Rainfall Rate (Hourly) solar Conditions
-17.8 °C -17.8 °C 0 hPa Calm     Humidity % 0 mm SolarRadiationWatts/m^2 W/m2 Conditions
00:00 -1.4 °C -7.5 °C 34086.9 hPa NNE 20.9 km/h 20.9 km/h 52 % 0 mm 0.0 W/m2 CLR
00:02 -1.5 °C -7.6 °C 34086.9 hPa NE 20.9 km/h 20.9 km/h 52 % 0 mm 0.0 W/m2 CLR
00:07 -1.7 °C -7.7 °C 34086.9 hPa Calm     52 % 0 mm 0.0 W/m2 CLR
00:12 -1.8 °C -8.2 °C 34086.9 hPa Calm     50 % 0 mm 0.0 W/m2 CLR
00:17 -1.7 °C -8.3 °C 34086.9 hPa Calm     49 % 0 mm 0.0 W/m2 CLR
00:27 -1.2 °C -8.2 °C 34086.9 hPa SW 6 km/h 6 km/h 47 % 0 mm 0.0 W/m2 CLR
00:32 -1 °C -8.2 °C 34086.9 hPa SW 26.9 km/h 26.9 km/h 46 % 0 mm 0.0 W/m2 CLR
00:37 -0.8 °C -8.2 °C 34086.9 hPa South 11.9 km/h 11.9 km/h 45 % 0 mm 0.0 W/m2 CLR
00:42 -0.6 °C -8.2 °C 34086.9 hPa SW 23.3 km/h 23.3 km/h 44 % 0 mm 0.0 W/m2 CLR
00:47 -0.5 °C -8.1 °C 34086.9 hPa South 9 km/h 9 km/h 44 % 0 mm 0.0 W/m2 CLR
00:52 -0.6 °C -8.2 °C 34086.9 hPa Calm     44 % 0 mm 0.0 W/m2 CLR
00:57 -0.6 °C -8.2 °C 34086.9 hPa SW 11.9 km/h 11.9 km/h 44 % 0 mm 0.0 W/m2 CLR
01:02 -0.6 °C -8.2 °C 34086.9 hPa Calm     44 % 0 mm 0.0 W/m2 CLR
01:07 -0.6 °C -8.2 °C 34086.9 hPa Calm     44 % 0 mm 0.0 W/m2 CLR
01:12 -0.7 °C -8.4 °C 34086.9 hPa Calm     43 % 0 mm 0.0 W/m2 CLR
01:17 -0.7 °C -8.5 °C 34086.9 hPa Calm     43 % 0 mm 0.0 W/m2 CLR
01:22 -0.9 °C -8.2 °C 34086.9 hPa Calm     45 % 0 mm 0.0 W/m2 CLR
01:27 -1.1 °C -8.2 °C 34073.3 hPa NE 20.9 km/h 20.9 km/h 46 % 0 mm 0.0 W/m2 CLR
01:32 -1.7 °C -7.6 °C 34073.3 hPa NE 20.9 km/h 20.9 km/h 53 % 0 mm 0.0 W/m2 CLR
01:37 -2.3 °C -7.4 °C 34086.9 hPa NNE 23.8 km/h 23.8 km/h 57 % 0 mm 0.0 W/m2 CLR
01:42 -2.6 °C -7.4 °C 34086.9 hPa North 11.9 km/h 11.9 km/h 59 % 0 mm 0.0 W/m2 CLR
01:47 -2.6 °C -7.4 °C 34086.9 hPa NNE 17.9 km/h 17.9 km/h 59 % 0 mm 0.0 W/m2 CLR
01:52 -2.6 °C -7.6 °C 34086.9 hPa Calm     58 % 0 mm 0.0 W/m2 CLR
01:57 -2.7 °C -7.3 °C 34086.9 hPa Calm     60 % 0 mm 0.0 W/m2 CLR
02:02 -2.7 °C -7.4 °C 34086.9 hPa Calm     60 % 0 mm 0.0 W/m2 CLR
02:07 -2.8 °C -7.1 °C 34086.9 hPa Calm     63 % 0 mm 0.0 W/m2 CLR
02:12 -3.1 °C -7 °C 34097 hPa Calm     65 % 0 mm 0.0 W/m2 CLR
02:17 -3.2 °C -7 °C 34107.2 hPa NNE 15 km/h 15 km/h 66 % 0 mm 0.0 W/m2 CLR
02:22 -3.2 °C -7.1 °C 34107.2 hPa NE 11.9 km/h 11.9 km/h 66 % 0 mm 0.0 W/m2 CLR
02:27 -3.2 °C -6.8 °C 34120.7 hPa Calm     67 % 0 mm 0.0 W/m2 CLR
02:32 -3.1 °C -6.9 °C 34120.7 hPa NW 17.9 km/h 17.9 km/h 66 % 0 mm 0.0 W/m2 CLR
02:37 -2.9 °C -6.4 °C 34120.7 hPa NW 29.8 km/h 29.8 km/h 68 % 0 mm 0.0 W/m2 CLR
02:42 -2.9 °C -6.4 °C 34120.7 hPa NW 41.7 km/h 41.7 km/h 69 % 0 mm 0.0 W/m2 CLR
02:47 -3.1 °C -6.3 °C 34120.7 hPa NW 35.7 km/h 35.7 km/h 70 % 0 mm 0.0 W/m2 CLR
02:52 -3.2 °C -6.2 °C 34130.9 hPa NW 50.7 km/h 50.7 km/h 72 % 0 mm 0.0 W/m2 CLR
02:57 -3.5 °C -6.1 °C 34130.9 hPa WNW 50.7 km/h 50.7 km/h 76 % 0 mm 0.0 W/m2 CLR
03:02 -3.7 °C -6 °C 34130.9 hPa NW 50.7 km/h 50.7 km/h 78 % 0 mm 0.0 W/m2 CLR
03:07 -4 °C -6.6 °C 34144.4 hPa NW 62.1 km/h 62.1 km/h 75 % 0 mm 0.0 W/m2 CLR
03:12 -4.3 °C -7 °C 34144.4 hPa NW 41.7 km/h 41.7 km/h 75 % 0 mm 0.0 W/m2 CLR
03:17 -4.6 °C -7.4 °C 34154.6 hPa WNW 56.6 km/h 56.6 km/h 73 % 0 mm 0.0 W/m2 CLR
03:22 -4.7 °C -7.6 °C 34154.6 hPa WNW 33.6 km/h 33.6 km/h 73 % 0 mm 0.0 W/m2 CLR
03:27 -4.8 °C -7.6 °C 34164.7 hPa WNW 41.7 km/h 41.7 km/h 73 % 0 mm 0.0 W/m2 CLR
03:32 -4.8 °C -7.8 °C 34164.7 hPa West 44.1 km/h 44.1 km/h 72 % 0 mm 0.0 W/m2 CLR
03:37 -4.8 °C -7.8 °C 34164.7 hPa NNW 28.5 km/h 28.5 km/h 72 % 0 mm 0.0 W/m2 CLR
03:42 -4.9 °C -7.9 °C 34178.3 hPa WNW 26.9 km/h 26.9 km/h 71 % 0 mm 0.0 W/m2 CLR
03:47 -4.9 °C -8.2 °C 34178.3 hPa WNW 29.8 km/h 29.8 km/h 70 % 0 mm 0.0 W/m2 CLR
03:52 -5 °C -8.2 °C 34178.3 hPa NNW 23.3 km/h 23.3 km/h 70 % 0 mm 0.0 W/m2 CLR
03:57 -5.1 °C -8.2 °C 34188.4 hPa WNW 41.7 km/h 41.7 km/h 70 % 0 mm 0.0 W/m2 CLR
04:02 -5.1 °C -8.3 °C 34188.4 hPa WNW 3.1 km/h   70 % 0 mm 0.0 W/m2 CLR
04:07 -5.1 °C -8.3 °C 34198.6 hPa Calm     70 % 0 mm 0.0 W/m2 CLR
04:12 -5.1 °C -8.3 °C 34198.6 hPa WNW 17.9 km/h 17.9 km/h 70 % 0 mm 0.0 W/m2 CLR
04:17 -5.2 °C -8.5 °C 34198.6 hPa NW 32.8 km/h 32.8 km/h 69 % 0 mm 0.0 W/m2 CLR
04:22 -5.2 °C -8.6 °C 34198.6 hPa West 29.8 km/h 29.8 km/h 69 % 0 mm 0.0 W/m2 CLR
04:27 -5.4 °C -8.8 °C 34198.6 hPa WNW 50.7 km/h 50.7 km/h 68 % 0 mm 0.0 W/m2 CLR
04:32 -5.4 °C -8.8 °C 34198.6 hPa WNW 29.8 km/h 29.8 km/h 69 % 0 mm 0.0 W/m2 CLR
04:37 -5.5 °C -8.9 °C 34212.1 hPa West 38.8 km/h 38.8 km/h 68 % 0 mm 0.0 W/m2 CLR
04:42 -5.6 °C -9 °C 34212.1 hPa WNW 38.8 km/h 38.8 km/h 68 % 0 mm 0.0 W/m2 CLR
04:47 -5.6 °C -9.1 °C 34212.1 hPa West 25.9 km/h 25.9 km/h 68 % 0 mm 0.0 W/m2 CLR
04:52 -5.7 °C -9.1 °C 34212.1 hPa WNW 29.8 km/h 29.8 km/h 68 % 0 mm 0.0 W/m2 CLR
04:57 -5.7 °C -9.2 °C 34212.1 hPa WNW 50.7 km/h 50.7 km/h 68 % 0 mm 0.0 W/m2 CLR
05:02 -5.8 °C -9.3 °C 34222.3 hPa WNW 50.7 km/h 50.7 km/h 68 % 0 mm 0.0 W/m2 CLR
05:07 -5.9 °C -9.3 °C 34222.3 hPa NW 53.6 km/h 53.6 km/h 68 % 0 mm 0.0 W/m2 CLR
05:19 -6.1 °C -9.4 °C 34222.3 hPa West 44.7 km/h 44.7 km/h 68 % 0 mm 0.0 W/m2 CLR
05:22 -6.1 °C -9.5 °C 34222.3 hPa WNW 44.7 km/h 44.7 km/h 68 % 0 mm 0.0 W/m2 CLR
05:24 -6.1 °C -9.5 °C 34222.3 hPa West 44.7 km/h 44.7 km/h 68 % 0 mm 0.0 W/m2 CLR
05:25 -6.1 °C -9.5 °C 34222.3 hPa West 29.8 km/h 29.8 km/h 68 % 0 mm 0.0 W/m2 CLR
05:28 -6.1 °C -9.5 °C 34222.3 hPa West 53.6 km/h 53.6 km/h 68 % 0 mm 0.0 W/m2 CLR
05:30 -6.2 °C -9.6 °C 34222.3 hPa West 44.7 km/h 44.7 km/h 68 % 0 mm 0.0 W/m2 CLR
05:32 -6.2 °C -9.6 °C 34222.3 hPa West 38.8 km/h 38.8 km/h 68 % 0 mm 0.0 W/m2 CLR
05:37 -6.3 °C -9.7 °C 34222.3 hPa NW 59.5 km/h 59.5 km/h 68 % 0 mm 0.0 W/m2 CLR
05:42 -6.3 °C -9.7 °C 34222.3 hPa NW 41.7 km/h 41.7 km/h 68 % 0 mm 0.0 W/m2 CLR
05:43 -6.3 °C -9.7 °C 34222.3 hPa WNW 41.7 km/h 41.7 km/h 68 % 0 mm 0.0 W/m2 CLR
05:48 -6.4 °C -9.8 °C 34222.3 hPa West 38.8 km/h 38.8 km/h 68 % 0 mm 0.0 W/m2 CLR
05:53 -6.4 °C -9.7 °C 34222.3 hPa West 44.7 km/h 44.7 km/h 69 % 0 mm 0.0 W/m2 CLR
05:58 -6.5 °C -9.8 °C 34222.3 hPa West 62.6 km/h 62.6 km/h 69 % 0 mm 0.0 W/m2 CLR
06:03 -6.6 °C -9.8 °C 34222.3 hPa WNW 65.5 km/h 65.5 km/h 69 % 0 mm 0.0 W/m2 CLR
06:08 -6.6 °C -9.8 °C 34235.8 hPa West 35.7 km/h 35.7 km/h 69 % 0 mm 0.0 W/m2 CLR
06:13 -6.6 °C -9.9 °C 34235.8 hPa West 44.7 km/h 44.7 km/h 69 % 0 mm 0.0 W/m2 CLR
06:18 -6.6 °C -9.9 °C 34235.8 hPa WNW 44.7 km/h 44.7 km/h 69 % 0 mm 0.0 W/m2 CLR
06:23 -6.7 °C -9.9 °C 34235.8 hPa West 29.8 km/h 29.8 km/h 69 % 0 mm 0.0 W/m2 CLR
06:28 -6.7 °C -9.9 °C 34235.8 hPa WSW 38.8 km/h 38.8 km/h 69 % 0 mm 0.0 W/m2 CLR
06:33 -6.7 °C -9.9 °C 34235.8 hPa WNW 44.7 km/h 44.7 km/h 69 % 0 mm 0.0 W/m2 CLR
06:38 -6.7 °C -9.8 °C 34246 hPa WSW 41.7 km/h 41.7 km/h 70 % 0 mm 0.0 W/m2 CLR
06:43 -6.8 °C -9.9 °C 34235.8 hPa West 35.7 km/h 35.7 km/h 70 % 0 mm 0.0 W/m2 CLR
06:48 -6.8 °C -9.9 °C 34246 hPa West 32.8 km/h 32.8 km/h 70 % 0 mm 0.0 W/m2 CLR
06:53 -6.8 °C -9.9 °C 34246 hPa WNW 50.7 km/h 50.7 km/h 70 % 0 mm 0.0 W/m2 CLR
06:58 -6.8 °C -9.9 °C 34246 hPa West 32.8 km/h 32.8 km/h 70 % 0 mm 0.0 W/m2 CLR
07:03 -6.8 °C -9.9 °C 34246 hPa West 29.8 km/h 29.8 km/h 70 % 0 mm 0.0 W/m2 OVC
07:08 -6.9 °C -9.9 °C 34246 hPa West 41.7 km/h 41.7 km/h 71 % 0 mm 5.0 W/m2 OVC
07:13 -6.9 °C -9.9 °C 34246 hPa West 47.6 km/h 47.6 km/h 71 % 0 mm 7.0 W/m2 BKN
07:18 -6.9 °C -9.9 °C 34256.2 hPa WSW 44.7 km/h 44.7 km/h 71 % 0 mm 11.0 W/m2 BKN
07:23 -6.9 °C -9.9 °C 34256.2 hPa WNW 41.7 km/h 41.7 km/h 71 % 0 mm 16.0 W/m2 BKN
07:28 -6.9 °C -9.9 °C 34256.2 hPa West 53.6 km/h 53.6 km/h 71 % 0 mm 19.0 W/m2 BKN
07:33 -7 °C -9.9 °C 34256.2 hPa WNW 35.7 km/h 35.7 km/h 71 % 0 mm 23.0 W/m2 BKN
07:38 -7 °C -10 °C 34256.2 hPa WNW 35.7 km/h 35.7 km/h 71 % 0 mm 26.0 W/m2 BKN
07:43 -7.1 °C -9.9 °C 34256.2 hPa WNW 53.6 km/h 53.6 km/h 72 % 0 mm 30.0 W/m2 BKN
07:48 -7.1 °C -9.9 °C 34256.2 hPa West 53.6 km/h 53.6 km/h 72 % 0 mm 35.0 W/m2 BKN
07:53 -7.1 °C -10.1 °C 34269.7 hPa WNW 35.7 km/h 35.7 km/h 71 % 0 mm 39.0 W/m2 BKN
07:58 -7.1 °C -10.1 °C 34269.7 hPa NW 35.7 km/h 35.7 km/h 71 % 0 mm 74.0 W/m2 FEW
08:03 -7 °C -9.9 °C 34269.7 hPa WNW 56.6 km/h 56.6 km/h 71 % 0 mm 84.0 W/m2 FEW
08:08 -6.9 °C -10.1 °C 34269.7 hPa NW 50.7 km/h 50.7 km/h 70 % 0 mm 104.0 W/m2 CLR
08:13 -6.9 °C -10 °C 34269.7 hPa WNW 50.7 km/h 50.7 km/h 70 % 0 mm 127.0 W/m2 CLR
08:18 -6.8 °C -9.9 °C 34269.7 hPa WNW 41.7 km/h 41.7 km/h 70 % 0 mm 146.0 W/m2 CLR
08:23 -6.8 °C -10.1 °C 34279.9 hPa NW 38.8 km/h 38.8 km/h 69 % 0 mm 171.0 W/m2 CLR
08:28 -6.8 °C -10.1 °C 34279.9 hPa NW 54.4 km/h 54.4 km/h 68 % 0 mm 181.0 W/m2 CLR
08:33 -6.8 °C -10.1 °C 34279.9 hPa NW 62.6 km/h 62.6 km/h 69 % 0 mm 197.0 W/m2 CLR
08:38 -6.8 °C -10.2 °C 34279.9 hPa WNW 56.6 km/h 56.6 km/h 68 % 0 mm 214.0 W/m2 CLR
08:43 -6.8 °C -10.2 °C 34279.9 hPa WNW 44.7 km/h 44.7 km/h 68 % 0 mm 223.0 W/m2 CLR
08:48 -6.8 °C -10.1 °C 34279.9 hPa WNW 56.6 km/h 56.6 km/h 68 % 0 mm 230.0 W/m2 CLR
08:53 -6.7 °C -10.2 °C 34279.9 hPa NW 65.5 km/h 65.5 km/h 67 % 0 mm 250.0 W/m2 CLR
08:58 -6.7 °C -10.2 °C 34279.9 hPa WNW 53.6 km/h 53.6 km/h 67 % 0 mm 269.0 W/m2 CLR
09:02 -6.6 °C -10.1 °C 34279.9 hPa NW 62.1 km/h 62.1 km/h 67 % 0 mm 279.0 W/m2 CLR
09:07 -6.6 °C -10.2 °C 34279.9 hPa NW 44.7 km/h 44.7 km/h 66 % 0 mm 299.0 W/m2 CLR
09:12 -6.5 °C -10.1 °C 34279.9 hPa NW 41.7 km/h 41.7 km/h 66 % 0 mm 315.0 W/m2 CLR
09:17 -6.4 °C -10.2 °C 34293.4 hPa WNW 62.6 km/h 62.6 km/h 65 % 0 mm 330.0 W/m2 CLR
09:22 -6.4 °C -10.2 °C 34293.4 hPa NW 62.6 km/h 62.6 km/h 65 % 0 mm 345.0 W/m2 CLR
09:27 -6.4 °C -10.4 °C 34293.4 hPa NW 68.6 km/h 68.6 km/h 64 % 0 mm 362.0 W/m2 CLR
09:32 -6.4 °C -10.4 °C 34293.4 hPa WNW 65.5 km/h 65.5 km/h 64 % 0 mm 378.0 W/m2 CLR
09:37 -6.3 °C -10.3 °C 34279.9 hPa NW 56.6 km/h 56.6 km/h 64 % 0 mm 346.0 W/m2 CLR
09:42 -6.2 °C -10.3 °C 34279.9 hPa WNW 65.5 km/h 65.5 km/h 63 % 0 mm 144.0 W/m2 CLR
09:47 -6.2 °C -10.2 °C 34293.4 hPa West 62.6 km/h 62.6 km/h 63 % 0 mm 403.0 W/m2 CLR
09:52 -6.2 °C -10.4 °C 34293.4 hPa NW 65.5 km/h 65.5 km/h 62 % 0 mm 436.0 W/m2 CLR
09:57 -6 °C -10.2 °C 34293.4 hPa WNW 50.7 km/h 50.7 km/h 62 % 0 mm 454.0 W/m2 CLR
10:02 -5.9 °C -10.3 °C 34293.4 hPa West 65.5 km/h 65.5 km/h 61 % 0 mm 466.0 W/m2 CLR
10:07 -5.9 °C -10.3 °C 34293.4 hPa West 41.7 km/h 41.7 km/h 61 % 0 mm 478.0 W/m2 CLR
10:12 -5.7 °C -10.2 °C 34293.4 hPa NNW 56.6 km/h 56.6 km/h 60 % 0 mm 504.0 W/m2 CLR
10:17 -5.8 °C -10.3 °C 34293.4 hPa NW 51.8 km/h 51.8 km/h 60 % 0 mm 519.0 W/m2 CLR
10:22 -5.7 °C -10.4 °C 34303.6 hPa WNW 47.6 km/h 47.6 km/h 59 % 0 mm 520.0 W/m2 CLR
10:27 -5.7 °C -10.4 °C 34303.6 hPa NW 62.6 km/h 62.6 km/h 59 % 0 mm 541.0 W/m2 CLR
10:32 -5.6 °C -10.4 °C 34293.4 hPa WNW 64.7 km/h 64.7 km/h 58 % 0 mm 561.0 W/m2 CLR
10:37 -5.6 °C -10.5 °C 34303.6 hPa WNW 68.6 km/h 68.6 km/h 57 % 0 mm 577.0 W/m2 CLR
10:42 -5.4 °C -10.6 °C 34303.6 hPa NNW 47.6 km/h 47.6 km/h 56 % 0 mm 587.0 W/m2 CLR
10:47 -5.3 °C -10.4 °C 34303.6 hPa NNW 53.6 km/h 53.6 km/h 56 % 0 mm 596.0 W/m2 CLR
10:52 -5.3 °C -10.6 °C 34303.6 hPa NW 54.4 km/h 54.4 km/h 55 % 0 mm 619.0 W/m2 CLR
10:57 -5.3 °C -10.6 °C 34303.6 hPa West 50.7 km/h 50.7 km/h 55 % 0 mm 629.0 W/m2 CLR
11:02 -5.3 °C -10.6 °C 34303.6 hPa WNW 50.7 km/h 50.7 km/h 55 % 0 mm 647.0 W/m2 CLR
11:07 -5.2 °C -10.6 °C 34303.6 hPa WNW 33.6 km/h 33.6 km/h 54 % 0 mm 654.0 W/m2 CLR
11:12 -5 °C -10.6 °C 34303.6 hPa West 44.7 km/h 44.7 km/h 53 % 0 mm 666.0 W/m2 CLR
11:17 -4.9 °C -10.6 °C 34303.6 hPa WNW 53.6 km/h 53.6 km/h 53 % 0 mm 680.0 W/m2 CLR
11:22 -4.7 °C -10.5 °C 34303.6 hPa NW 50.7 km/h 50.7 km/h 52 % 0 mm 693.0 W/m2 CLR
11:27 -4.7 °C -10.7 °C 34303.6 hPa NW 47.6 km/h 47.6 km/h 51 % 0 mm 705.0 W/m2 CLR
11:32 -4.6 °C -10.6 °C 34313.7 hPa WNW 72.6 km/h 72.6 km/h 51 % 0 mm 715.0 W/m2 CLR
11:37 -4.6 °C -10.7 °C 34313.7 hPa WNW 47.6 km/h 47.6 km/h 50 % 0 mm 726.0 W/m2 CLR
11:42 -4.5 °C -10.8 °C 34313.7 hPa NW 50.7 km/h 50.7 km/h 49 % 0 mm 733.0 W/m2 CLR
11:47 -4.4 °C -10.6 °C 34313.7 hPa NW 41.7 km/h 41.7 km/h 50 % 0 mm 742.0 W/m2 CLR
11:52 -4.4 °C -10.9 °C 34313.7 hPa NNW 47.6 km/h 47.6 km/h 48 % 0 mm 758.0 W/m2 CLR
11:57 -4.4 °C -10.8 °C 34313.7 hPa WNW 57 km/h 57 km/h 49 % 0 mm 766.0 W/m2 CLR
12:02 -4.5 °C -10.8 °C 34313.7 hPa WNW 46.7 km/h 46.7 km/h 49 % 0 mm 777.0 W/m2 CLR
12:07 -4.3 °C -11.2 °C 34313.7 hPa WNW 50.7 km/h 50.7 km/h 46 % 0 mm 786.0 W/m2 CLR
12:12 -4.3 °C -11 °C 34313.7 hPa NW 41.7 km/h 41.7 km/h 47 % 0 mm 791.0 W/m2 CLR
12:17 -4.3 °C -11.2 °C 34313.7 hPa NW 50.7 km/h 50.7 km/h 46 % 0 mm 800.0 W/m2 CLR
12:22 -4.2 °C -11.3 °C 34313.7 hPa NNW 65.5 km/h 65.5 km/h 45 % 0 mm 807.0 W/m2 CLR
12:27 -4.2 °C -11.2 °C 34313.7 hPa NNW 56.6 km/h 56.6 km/h 45 % 0 mm 814.0 W/m2 CLR
12:32 -4.1 °C -11.3 °C 34313.7 hPa WNW 50.7 km/h 50.7 km/h 44 % 0 mm 828.0 W/m2 CLR
12:37 -3.9 °C -11.2 °C 34313.7 hPa NW 41.7 km/h 41.7 km/h 44 % 0 mm 833.0 W/m2 CLR
12:42 -3.9 °C -11.2 °C 34313.7 hPa NW 49.2 km/h 49.2 km/h 44 % 0 mm 842.0 W/m2 CLR
12:47 -3.9 °C -11.4 °C 34313.7 hPa WNW 50.7 km/h 50.7 km/h 43 % 0 mm 846.0 W/m2 CLR
12:52 -3.7 °C -11.6 °C 34313.7 hPa NNW 51.8 km/h 51.8 km/h 41 % 0 mm 858.0 W/m2 CLR
12:57 -3.8 °C -12.1 °C 34327.3 hPa NNW 56.6 km/h 56.6 km/h 39 % 0 mm 867.0 W/m2 CLR
13:02 -3.9 °C -12.4 °C 34327.3 hPa NNW 56.6 km/h 56.6 km/h 38 % 0 mm 870.0 W/m2 CLR
13:07 -3.8 °C -12.1 °C 34313.7 hPa NW 59.5 km/h 59.5 km/h 39 % 0 mm 874.0 W/m2 CLR
13:12 -3.5 °C -12.3 °C 34313.7 hPa NNW 56.6 km/h 56.6 km/h 37 % 0 mm 877.0 W/m2 CLR
13:17 -3.4 °C -12.2 °C 34327.3 hPa WSW 56.6 km/h 56.6 km/h 37 % 0 mm 881.0 W/m2 CLR
13:22 -3.4 °C -12.6 °C 34313.7 hPa NNW 53.6 km/h 53.6 km/h 35 % 0 mm 884.0 W/m2 CLR
13:27 -3.3 °C -12.6 °C 34313.7 hPa North 32.8 km/h 32.8 km/h 35 % 0 mm 891.0 W/m2 CLR
13:32 -3.3 °C -12.8 °C 34313.7 hPa WNW 41.7 km/h 41.7 km/h 34 % 0 mm 891.0 W/m2 CLR
13:37 -3.1 °C -12.8 °C 34313.7 hPa NNW 44.7 km/h 44.7 km/h 33 % 0 mm 896.0 W/m2 CLR
13:42 -3.2 °C -12.9 °C 34313.7 hPa NW 62.6 km/h 62.6 km/h 33 % 0 mm 902.0 W/m2 CLR
13:47 -3.1 °C -13.1 °C 34313.7 hPa North 53.6 km/h 53.6 km/h 32 % 0 mm 904.0 W/m2 CLR
13:52 -3 °C -13 °C 34313.7 hPa NW 65.5 km/h 65.5 km/h 32 % 0 mm 905.0 W/m2 CLR
13:57 -3 °C -13 °C 34303.6 hPa WNW 54.4 km/h 54.4 km/h 32 % 0 mm 907.0 W/m2 CLR
14:02 -2.9 °C -12.9 °C 34303.6 hPa NW 68.6 km/h 68.6 km/h 32 % 0 mm 907.0 W/m2 CLR
14:07 -2.8 °C -12.9 °C 34303.6 hPa NNW 50.7 km/h 50.7 km/h 32 % 0 mm 905.0 W/m2 CLR
14:12 -2.9 °C -12.7 °C 34303.6 hPa NNW 47.6 km/h 47.6 km/h 33 % 0 mm 905.0 W/m2 CLR
14:17 -2.8 °C -12.6 °C 34303.6 hPa NW 67.3 km/h 67.3 km/h 33 % 0 mm 905.0 W/m2 CLR
14:22 -2.8 °C -12.9 °C 34303.6 hPa NNW 50.7 km/h 50.7 km/h 32 % 0 mm 907.0 W/m2 CLR
14:27 -2.8 °C -12.9 °C 34303.6 hPa WNW 59.5 km/h 59.5 km/h 32 % 0 mm 909.0 W/m2 CLR
14:32 -2.9 °C -12.9 °C 34303.6 hPa NNW 65.5 km/h 65.5 km/h 32 % 0 mm 904.0 W/m2 CLR
14:37 -3 °C -13 °C 34303.6 hPa WNW 62.6 km/h 62.6 km/h 32 % 0 mm 900.0 W/m2 CLR
14:42 -2.9 °C -12.7 °C 34303.6 hPa NW 50.7 km/h 50.7 km/h 33 % 0 mm 898.0 W/m2 CLR
14:47 -2.7 °C -13.1 °C 34303.6 hPa NW 57 km/h 57 km/h 31 % 0 mm 900.0 W/m2 CLR
14:52 -2.8 °C -13.1 °C 34303.6 hPa NW 56.6 km/h 56.6 km/h 31 % 0 mm 900.0 W/m2 CLR
14:57 -2.8 °C -13.1 °C 34303.6 hPa NNW 44.7 km/h 44.7 km/h 31 % 0 mm 902.0 W/m2 CLR
15:02 -2.7 °C -12.7 °C 34303.6 hPa WNW 44.7 km/h 44.7 km/h 32 % 0 mm 896.0 W/m2 CLR
15:07 -2.5 °C -12.9 °C 34303.6 hPa NW 53.6 km/h 53.6 km/h 31 % 0 mm 902.0 W/m2 CLR
15:12 -2.6 °C -12.9 °C 34303.6 hPa NNW 56.6 km/h 56.6 km/h 31 % 0 mm 914.0 W/m2 CLR
15:17 -2.6 °C -12.7 °C 34303.6 hPa North 50.7 km/h 50.7 km/h 32 % 0 mm 928.0 W/m2 CLR
15:22 -2.3 °C -12.7 °C 34303.6 hPa WNW 59.5 km/h 59.5 km/h 31 % 0 mm 953.0 W/m2 CLR
15:27 -2.4 °C -12.8 °C 34303.6 hPa NNW 51.8 km/h 51.8 km/h 31 % 0 mm 791.0 W/m2 CLR
15:33 -2.7 °C -12.8 °C 34303.6 hPa North 50.7 km/h 50.7 km/h 32 % 0 mm 714.0 W/m2 CLR
15:38 -2.8 °C -12.8 °C 34303.6 hPa North 62.1 km/h 62.1 km/h 32 % 0 mm 724.0 W/m2 CLR
15:43 -2.7 °C -13.1 °C 34303.6 hPa North 50.7 km/h 50.7 km/h 31 % 0 mm 838.0 W/m2 CLR
15:48 -2.5 °C -12.9 °C 34303.6 hPa NNW 49.2 km/h 49.2 km/h 31 % 0 mm 840.0 W/m2 CLR
15:53 -2.6 °C -12.7 °C 34293.4 hPa NNW 44.7 km/h 44.7 km/h 32 % 0 mm 828.0 W/m2 CLR
15:58 -2.4 °C -12.8 °C 34303.6 hPa WNW 50.7 km/h 50.7 km/h 31 % 0 mm 814.0 W/m2 CLR
16:03 -2.4 °C -12.5 °C 34303.6 hPa NNW 59.5 km/h 59.5 km/h 32 % 0 mm 803.0 W/m2 CLR
16:08 -2.4 °C -12.5 °C 34303.6 hPa North 56.6 km/h 56.6 km/h 32 % 0 mm 796.0 W/m2 CLR
16:13 -2.5 °C -12.6 °C 34303.6 hPa NW 50.7 km/h 50.7 km/h 32 % 0 mm 788.0 W/m2 CLR
16:18 -2.5 °C -12.9 °C 34303.6 hPa NW 62.6 km/h 62.6 km/h 31 % 0 mm 780.0 W/m2 CLR
16:23 -2.4 °C -12.8 °C 34293.4 hPa NW 50.7 km/h 50.7 km/h 31 % 0 mm 772.0 W/m2 CLR
16:28 -2.4 °C -13.1 °C 34293.4 hPa NW 50.7 km/h 50.7 km/h 30 % 0 mm 761.0 W/m2 CLR
16:33 -2.3 °C -12.7 °C 34303.6 hPa WNW 53.6 km/h 53.6 km/h 31 % 0 mm 749.0 W/m2 CLR
16:38 -2.4 °C -12.7 °C 34303.6 hPa NNW 53.6 km/h 53.6 km/h 31 % 0 mm 738.0 W/m2 CLR
16:43 -2.4 °C -12.8 °C 34303.6 hPa WNW 50.7 km/h 50.7 km/h 31 % 0 mm 724.0 W/m2 CLR
16:48 -2.4 °C -13 °C 34303.6 hPa NW 47.6 km/h 47.6 km/h 30 % 0 mm 712.0 W/m2 CLR
16:53 -2.4 °C -12.8 °C 34303.6 hPa NW 50.7 km/h 50.7 km/h 31 % 0 mm 700.0 W/m2 CLR
16:58 -2.4 °C -12.8 °C 34303.6 hPa WNW 59.5 km/h 59.5 km/h 31 % 0 mm 691.0 W/m2 CLR
17:03 -2.4 °C -13.1 °C 34303.6 hPa WNW 53.6 km/h 53.6 km/h 30 % 0 mm 677.0 W/m2 CLR
17:08 -2.3 °C -12.9 °C 34303.6 hPa NW 54.4 km/h 54.4 km/h 30 % 0 mm 661.0 W/m2 CLR
17:13 -2.2 °C -12.9 °C 34303.6 hPa NW 57 km/h 57 km/h 30 % 0 mm 647.0 W/m2 CLR
17:18 -2.5 °C -12.9 °C 34313.7 hPa NNW 49.2 km/h 49.2 km/h 31 % 0 mm 633.0 W/m2 CLR
17:23 -2.4 °C -12.8 °C 34313.7 hPa North 50.7 km/h 50.7 km/h 31 % 0 mm 619.0 W/m2 CLR
17:28 -2.3 °C -12.7 °C 34303.6 hPa NNW 47.6 km/h 47.6 km/h 31 % 0 mm 606.0 W/m2 CLR
17:33 -2.3 °C -13 °C 34303.6 hPa NW 65.5 km/h 65.5 km/h 30 % 0 mm 592.0 W/m2 CLR
17:38 -2.6 °C -12.9 °C 34313.7 hPa NNW 59.5 km/h 59.5 km/h 31 % 0 mm 584.0 W/m2 CLR
17:43 -2.4 °C -12.8 °C 34313.7 hPa NW 57 km/h 57 km/h 31 % 0 mm 563.0 W/m2 CLR
17:48 -2.6 °C -12.6 °C 34313.7 hPa NNW 62.6 km/h 62.6 km/h 32 % 0 mm 545.0 W/m2 CLR
17:53 -2.6 °C -12.9 °C 34303.6 hPa NNW 59.5 km/h 59.5 km/h 31 % 0 mm 531.0 W/m2 CLR
17:58 -2.4 °C -12.8 °C 34303.6 hPa West 50.7 km/h 50.7 km/h 31 % 0 mm 519.0 W/m2 CLR
18:03 -2.6 °C -12.9 °C 34313.7 hPa NNW 68.6 km/h 68.6 km/h 31 % 0 mm 497.0 W/m2 CLR
18:08 -2.6 °C -12.9 °C 34313.7 hPa NW 65.5 km/h 65.5 km/h 31 % 0 mm 485.0 W/m2 CLR
18:13 -2.6 °C -12.9 °C 34313.7 hPa WNW 50.7 km/h 50.7 km/h 31 % 0 mm 473.0 W/m2 CLR
18:19 -2.6 °C -12.9 °C 34313.7 hPa NW 50.7 km/h 50.7 km/h 31 % 0 mm 457.0 W/m2 CLR
18:24 -2.7 °C -13.3 °C 34313.7 hPa NW 56.6 km/h 56.6 km/h 30 % 0 mm 445.0 W/m2 CLR
18:29 -2.6 °C -13.2 °C 34313.7 hPa WNW 51.8 km/h 51.8 km/h 30 % 0 mm 427.0 W/m2 CLR
18:34 -2.6 °C -12.9 °C 34313.7 hPa NW 44.7 km/h 44.7 km/h 31 % 0 mm 408.0 W/m2 CLR
18:39 -2.6 °C -13.2 °C 34313.7 hPa NNW 64.7 km/h 64.7 km/h 30 % 0 mm 394.0 W/m2 CLR
18:44 -2.7 °C -13.6 °C 34313.7 hPa NNW 38.8 km/h 38.8 km/h 29 % 0 mm 376.0 W/m2 CLR
18:49 -2.7 °C -13.3 °C 34313.7 hPa NW 29.8 km/h 29.8 km/h 30 % 0 mm 359.0 W/m2 CLR
18:54 -2.6 °C -13.5 °C 34313.7 hPa NNW 49.2 km/h 49.2 km/h 29 % 0 mm 343.0 W/m2 CLR
18:59 -2.8 °C -13.4 °C 34327.3 hPa NNW 47.6 km/h 47.6 km/h 30 % 0 mm 327.0 W/m2 CLR
19:04 -2.8 °C -13.4 °C 34327.3 hPa NNW 36.2 km/h 36.2 km/h 30 % 0 mm 304.0 W/m2 CLR
19:09 -2.9 °C -13.2 °C 34327.3 hPa NNW 44.7 km/h 44.7 km/h 31 % 0 mm 292.0 W/m2 CLR
19:14 -2.9 °C -13.3 °C 34327.3 hPa North 26.9 km/h 26.9 km/h 31 % 0 mm 281.0 W/m2 CLR
19:19 -2.8 °C -13.1 °C 34327.3 hPa NNW 23.8 km/h 23.8 km/h 31 % 0 mm 257.0 W/m2 CLR
19:24 -2.7 °C -13.6 °C 34327.3 hPa NNW 35.7 km/h 35.7 km/h 29 % 0 mm 237.0 W/m2 CLR
19:29 -2.9 °C -13.7 °C 34327.3 hPa NNW 35.7 km/h 35.7 km/h 29 % 0 mm 220.0 W/m2 CLR
19:34 -3 °C -14.1 °C 34337.4 hPa NW 29.8 km/h 29.8 km/h 28 % 0 mm 192.0 W/m2 CLR
19:39 -3 °C -14.1 °C 34337.4 hPa NW 47.6 km/h 47.6 km/h 28 % 0 mm 183.0 W/m2 CLR
19:44 -3.1 °C -13.9 °C 34337.4 hPa NW 44.7 km/h 44.7 km/h 29 % 0 mm 163.0 W/m2 CLR
19:49 -3.1 °C -13.9 °C 34337.4 hPa Calm     29 % 0 mm 148.0 W/m2 CLR
19:54 -3.1 °C -13.9 °C 34337.4 hPa North 29.8 km/h 29.8 km/h 29 % 0 mm 134.0 W/m2 CLR
19:59 -3.2 °C -14.3 °C 34337.4 hPa NW 44.7 km/h 44.7 km/h 28 % 0 mm 120.0 W/m2 CLR
20:04 -3.2 °C -14 °C 34337.4 hPa NW 38.8 km/h 38.8 km/h 29 % 0 mm 107.0 W/m2 CLR
20:09 -3.3 °C -14.1 °C 34337.4 hPa NW 26.9 km/h 26.9 km/h 29 % 0 mm 90.0 W/m2 CLR
20:14 -3.4 °C -14.2 °C 34337.4 hPa NW 41.7 km/h 41.7 km/h 29 % 0 mm 74.0 W/m2 FEW
20:19 -3.5 °C -14.3 °C 34337.4 hPa NW 38.8 km/h 38.8 km/h 29 % 0 mm 58.0 W/m2 SCT
20:24 -3.7 °C -13.8 °C 34347.6 hPa NW 38.8 km/h 38.8 km/h 31 % 0 mm 49.0 W/m2 SCT
20:29 -3.7 °C -13.9 °C 34337.4 hPa NW 29.8 km/h 29.8 km/h 31 % 0 mm 39.0 W/m2 BKN
20:34 -3.8 °C -13.7 °C 34337.4 hPa NNW 32.8 km/h 32.8 km/h 32 % 0 mm 30.0 W/m2 BKN
20:39 -3.8 °C -13.8 °C 34337.4 hPa NNW 31.1 km/h 31.1 km/h 32 % 0 mm 25.0 W/m2 BKN
20:44 -3.9 °C -13.6 °C 34347.6 hPa NW 47.6 km/h 47.6 km/h 33 % 0 mm 19.0 W/m2 BKN
20:49 -4.1 °C -13.5 °C 34347.6 hPa NW 32.8 km/h 32.8 km/h 34 % 0 mm 16.0 W/m2 BKN
20:54 -4.2 °C -13.4 °C 34347.6 hPa NW 38.8 km/h 38.8 km/h 35 % 0 mm 12.0 W/m2 BKN
20:59 -4.3 °C -13.2 °C 34347.6 hPa NNW 29.8 km/h 29.8 km/h 36 % 0 mm 11.0 W/m2 BKN
21:04 -4.4 °C -13.1 °C 34347.6 hPa NW 29.8 km/h 29.8 km/h 37 % 0 mm 7.0 W/m2 BKN
21:09 -4.5 °C -13.2 °C 34361.1 hPa WNW 29.8 km/h 29.8 km/h 37 % 0 mm 5.0 W/m2 OVC
21:14 -4.6 °C -13.2 °C 34361.1 hPa NW 29.8 km/h 29.8 km/h 37 % 0 mm 0.0 W/m2 OVC
21:19 -4.6 °C -13.3 °C 34361.1 hPa NW 29.8 km/h 29.8 km/h 37 % 0 mm 0.0 W/m2 CLR
21:24 -4.7 °C -13.3 °C 34361.1 hPa NW 32.8 km/h 32.8 km/h 37 % 0 mm 0.0 W/m2 CLR
21:29 -4.8 °C -13.2 °C 34361.1 hPa WNW 29.8 km/h 29.8 km/h 38 % 0 mm 0.0 W/m2 CLR
21:34 -4.8 °C -13.2 °C 34371.3 hPa NW 38.8 km/h 38.8 km/h 38 % 0 mm 0.0 W/m2 CLR
21:39 -4.9 °C -13.1 °C 34371.3 hPa NW 36.2 km/h 36.2 km/h 39 % 0 mm 0.0 W/m2 CLR
21:45 -4.9 °C -13.1 °C 34371.3 hPa NW 32.8 km/h 33.6 km/h 39 % 0 mm 0.0 W/m2 CLR
21:50 -4.9 °C -13.1 °C 34371.3 hPa NW 36.2 km/h 38.3 km/h 39 % 0 mm 0.0 W/m2 CLR
21:55 -5 °C -12.9 °C 34384.8 hPa WNW 38.8 km/h 38.8 km/h 40 % 0 mm 0.0 W/m2 CLR
22:00 -5.1 °C -13 °C 34384.8 hPa WNW 32.8 km/h 32.8 km/h 40 % 0 mm 0.0 W/m2 CLR
22:05 -5.1 °C -12.8 °C 34395 hPa NW 29.8 km/h 29.8 km/h 41 % 0 mm 0.0 W/m2 CLR
22:10 -5.2 °C -12.9 °C 34395 hPa WNW 23.8 km/h 23.8 km/h 41 % 0 mm 0.0 W/m2 CLR
22:11 -5.2 °C -12.9 °C 34395 hPa WNW 26.9 km/h 26.9 km/h 41 % 0 mm 0.0 W/m2 CLR
22:16 -5.3 °C -12.8 °C 34395 hPa NW 35.7 km/h 35.7 km/h 42 % 0 mm 0.0 W/m2 CLR
22:21 -5.3 °C -12.7 °C 34395 hPa NW 35.7 km/h 35.7 km/h 43 % 0 mm 0.0 W/m2 CLR
22:26 -5.4 °C -12.7 °C 34395 hPa WNW 29.8 km/h 29.8 km/h 43 % 0 mm 0.0 W/m2 CLR
22:31 -5.4 °C -12.8 °C 34405.1 hPa West 26.9 km/h 26.9 km/h 43 % 0 mm 0.0 W/m2 CLR
22:36 -5.5 °C -12.8 °C 34405.1 hPa West 35.7 km/h 35.7 km/h 43 % 0 mm 0.0 W/m2 CLR
22:41 -5.5 °C -12.8 °C 34405.1 hPa West 35.7 km/h 35.7 km/h 43 % 0 mm 0.0 W/m2 CLR
22:46 -5.6 °C -12.9 °C 34405.1 hPa WNW 26.9 km/h 26.9 km/h 43 % 0 mm 0.0 W/m2 CLR
22:51 -5.6 °C -12.9 °C 34405.1 hPa WNW 35.7 km/h 35.7 km/h 43 % 0 mm 0.0 W/m2 CLR
22:56 -5.6 °C -12.9 °C 34405.1 hPa WNW 35.7 km/h 35.7 km/h 43 % 0 mm 0.0 W/m2 CLR
23:01 -5.7 °C -12.9 °C 34405.1 hPa WNW 31.1 km/h 31.1 km/h 43 % 0 mm 0.0 W/m2 CLR
23:06 -5.7 °C -12.8 °C 34405.1 hPa WNW 38.8 km/h 38.8 km/h 44 % 0 mm 0.0 W/m2 CLR
23:11 -5.8 °C -12.7 °C 34418.7 hPa WNW 29.8 km/h 29.8 km/h 45 % 0 mm 0.0 W/m2 CLR
23:16 -5.9 °C -12.8 °C 34418.7 hPa West 26.9 km/h 26.9 km/h 45 % 0 mm 0.0 W/m2 CLR
23:21 -5.9 °C -12.8 °C 34418.7 hPa West 26.9 km/h 26.9 km/h 45 % 0 mm 0.0 W/m2 CLR
23:26 -6 °C -12.7 °C 34418.7 hPa West 29.8 km/h 29.8 km/h 46 % 0 mm 0.0 W/m2 CLR
23:31 -6 °C -12.7 °C 34418.7 hPa West 23.8 km/h 23.8 km/h 46 % 0 mm 0.0 W/m2 CLR
23:36 -6.1 °C -12.7 °C 34428.8 hPa West 12.9 km/h 12.9 km/h 46 % 0 mm 0.0 W/m2 CLR
23:41 -6.1 °C -12.8 °C 34428.8 hPa WSW 20.9 km/h 20.9 km/h 46 % 0 mm 0.0 W/m2 CLR
23:46 -6.2 °C -12.8 °C 34428.8 hPa West 23.8 km/h 23.8 km/h 46 % 0 mm 0.0 W/m2 CLR
23:51 -6.2 °C -12.9 °C 34428.8 hPa WNW 29.8 km/h 29.8 km/h 46 % 0 mm 0.0 W/m2 CLR
23:56 -6.2 °C -12.9 °C 34428.8 hPa WNW 20.9 km/h 20.9 km/h 46 % 0 mm 0.0 W/m2 CLR
Lo Temps de Massalio
Compliments of Weather Underground - 1.25 mb